createdAt,value
2022-08-19T00:01:53.139Z,17.30
2022-08-19T00:04:25.541Z,17.30
2022-08-19T00:06:53.739Z,17.30
2022-08-19T00:09:23.275Z,17.30
2022-08-19T00:11:51.441Z,17.30
2022-08-19T00:14:19.635Z,17.30
2022-08-19T00:16:48.764Z,17.20
2022-08-19T00:19:17.331Z,17.20
2022-08-19T00:21:44.939Z,17.10
2022-08-19T00:24:13.715Z,17.10
2022-08-19T00:26:42.310Z,17.20
2022-08-19T00:29:11.421Z,17.20
2022-08-19T00:31:38.603Z,17.20
2022-08-19T00:34:05.930Z,17.20
2022-08-19T00:36:34.287Z,17.20
2022-08-19T00:39:01.906Z,17.20
2022-08-19T00:41:29.634Z,17.20
2022-08-19T00:44:05.564Z,17.10
2022-08-19T00:46:34.880Z,17.10
2022-08-19T00:49:03.592Z,17.10
2022-08-19T00:51:33.614Z,17.10
2022-08-19T00:54:02.340Z,17.10
2022-08-19T00:56:30.219Z,17.00
2022-08-19T00:58:58.878Z,17.00
2022-08-19T01:01:26.336Z,17.00
2022-08-19T01:03:56.604Z,17.00
2022-08-19T01:06:27.229Z,16.90
2022-08-19T01:08:56.440Z,16.90
2022-08-19T01:11:23.662Z,16.90
2022-08-19T01:13:52.278Z,16.90
2022-08-19T01:16:22.818Z,16.90
2022-08-19T01:18:50.463Z,16.80
2022-08-19T01:21:39.171Z,16.80
2022-08-19T01:24:06.574Z,16.80
2022-08-19T01:26:44.128Z,16.70
2022-08-19T01:29:11.842Z,16.70
2022-08-19T01:31:40.384Z,16.70
2022-08-19T01:34:08.396Z,16.60
2022-08-19T01:36:46.623Z,16.60
2022-08-19T01:39:16.446Z,16.60
2022-08-19T01:41:43.744Z,16.60
2022-08-19T01:44:18.842Z,16.60
2022-08-19T01:46:48.867Z,16.60
2022-08-19T01:49:17.785Z,16.70
2022-08-19T01:51:45.002Z,16.70
2022-08-19T01:54:27.243Z,16.70
2022-08-19T01:57:06.151Z,16.70
2022-08-19T01:59:34.677Z,16.60
2022-08-19T02:02:02.260Z,16.60
2022-08-19T02:04:29.453Z,16.60
2022-08-19T02:06:56.664Z,16.60
2022-08-19T02:09:23.915Z,16.60
2022-08-19T02:11:51.100Z,16.60
2022-08-19T02:14:18.401Z,16.60
2022-08-19T02:16:45.581Z,16.60
2022-08-19T02:19:12.818Z,16.60
2022-08-19T02:21:40.132Z,16.50
2022-08-19T02:24:07.398Z,16.50
2022-08-19T02:26:35.189Z,16.50
2022-08-19T02:29:02.585Z,16.50
2022-08-19T02:31:29.748Z,16.50
2022-08-19T02:33:58.393Z,16.50
2022-08-19T02:36:26.468Z,16.50
2022-08-19T02:38:54.930Z,16.50
2022-08-19T02:41:27.352Z,16.40
2022-08-19T02:44:14.265Z,16.40
2022-08-19T02:46:46.128Z,16.40
2022-08-19T02:49:14.091Z,16.30
2022-08-19T02:51:43.246Z,16.30
2022-08-19T02:54:12.858Z,16.30
2022-08-19T02:56:41.374Z,16.20
2022-08-19T02:59:12.212Z,16.20
2022-08-19T03:01:42.451Z,16.20
2022-08-19T03:04:12.555Z,16.20
2022-08-19T03:06:41.163Z,16.20
2022-08-19T03:09:08.745Z,16.20
2022-08-19T03:11:36.476Z,16.20
2022-08-19T03:14:04.941Z,16.20
2022-08-19T03:16:35.141Z,16.20
2022-08-19T03:19:02.740Z,16.20
2022-08-19T03:21:32.688Z,16.20
2022-08-19T03:24:02.350Z,16.20
2022-08-19T03:26:30.033Z,16.20
2022-08-19T03:28:58.573Z,16.20
2022-08-19T03:31:43.517Z,16.20
2022-08-19T03:34:18.446Z,16.30
2022-08-19T03:36:46.910Z,16.30
2022-08-19T03:39:14.587Z,16.30
2022-08-19T03:41:46.274Z,16.30
2022-08-19T03:44:17.846Z,16.20
2022-08-19T03:46:48.228Z,16.20
2022-08-19T03:49:18.165Z,16.20
2022-08-19T03:51:47.545Z,16.20
2022-08-19T03:54:17.039Z,16.20
2022-08-19T03:56:46.283Z,16.20
2022-08-19T03:59:16.706Z,16.20
2022-08-19T04:01:44.561Z,16.30
2022-08-19T04:04:11.942Z,16.30
2022-08-19T04:06:40.130Z,16.30
2022-08-19T04:09:11.727Z,16.30
2022-08-19T04:11:45.758Z,16.30
2022-08-19T04:14:16.236Z,16.30
2022-08-19T04:16:45.626Z,16.30
2022-08-19T04:19:13.545Z,16.40
2022-08-19T04:21:41.343Z,16.40
2022-08-19T04:24:10.814Z,16.40
2022-08-19T04:26:38.704Z,16.50
2022-08-19T04:29:18.103Z,16.60
2022-08-19T04:31:46.825Z,16.60
2022-08-19T04:34:16.571Z,16.70
2022-08-19T04:36:46.988Z,16.80
2022-08-19T04:39:17.337Z,16.80
2022-08-19T04:42:04.016Z,16.90
2022-08-19T04:44:36.019Z,17.10
2022-08-19T04:47:11.430Z,17.20
2022-08-19T04:49:39.015Z,17.30
2022-08-19T04:52:06.513Z,17.50
2022-08-19T04:54:37.701Z,17.70
2022-08-19T04:57:11.008Z,17.80
2022-08-19T04:59:39.812Z,18.00
2022-08-19T05:02:09.549Z,18.00
2022-08-19T05:04:40.388Z,18.10
2022-08-19T05:07:09.607Z,18.20
2022-08-19T05:09:57.508Z,18.30
2022-08-19T05:12:28.754Z,18.40
2022-08-19T05:14:58.217Z,18.60
2022-08-19T05:17:29.066Z,18.70
2022-08-19T05:20:17.594Z,18.80
2022-08-19T05:22:47.422Z,18.90
2022-08-19T05:25:22.141Z,18.90
2022-08-19T05:27:49.805Z,19.00
2022-08-19T05:30:18.152Z,19.10
2022-08-19T05:32:45.936Z,19.10
2022-08-19T05:35:13.608Z,19.10
2022-08-19T05:37:41.711Z,19.20
2022-08-19T05:40:10.672Z,19.30
2022-08-19T05:42:38.582Z,19.40
2022-08-19T05:45:08.957Z,19.50
2022-08-19T05:47:40.633Z,19.60
2022-08-19T05:50:09.969Z,19.70
2022-08-19T05:52:45.909Z,19.80
2022-08-19T05:55:18.004Z,19.90
2022-08-19T05:57:45.058Z,19.90
2022-08-19T06:00:13.237Z,20.00
2022-08-19T06:02:41.411Z,20.10
2022-08-19T06:05:10.254Z,20.20
2022-08-19T06:07:38.999Z,20.20
2022-08-19T06:10:09.257Z,20.30
2022-08-19T06:12:36.857Z,20.40
2022-08-19T06:15:13.076Z,20.60
2022-08-19T06:17:40.579Z,20.70
2022-08-19T06:20:13.103Z,20.70
2022-08-19T06:22:45.167Z,20.80
2022-08-19T06:25:13.964Z,21.00
2022-08-19T06:27:53.360Z,21.10
2022-08-19T06:30:29.129Z,21.20
2022-08-19T06:32:56.304Z,21.30
2022-08-19T06:35:23.525Z,21.40
2022-08-19T06:37:50.802Z,21.50
2022-08-19T06:40:18.055Z,21.60
2022-08-19T06:42:54.244Z,21.70
2022-08-19T06:45:34.512Z,21.80
2022-08-19T06:48:03.756Z,21.90
2022-08-19T06:50:30.982Z,22.00
2022-08-19T06:52:58.092Z,22.10
2022-08-19T06:55:33.277Z,22.20
2022-08-19T06:58:04.918Z,22.30
2022-08-19T07:03:08.779Z,22.50
2022-08-19T07:05:46.000Z,22.50
2022-08-19T07:08:14.499Z,22.70
2022-08-19T07:10:45.940Z,22.70
2022-08-19T07:13:13.225Z,22.90
2022-08-19T07:15:40.315Z,23.00
2022-08-19T07:18:07.516Z,23.10
2022-08-19T07:20:40.213Z,23.10
2022-08-19T07:23:09.594Z,23.20
2022-08-19T07:25:39.106Z,23.40
2022-08-19T07:28:15.785Z,23.50
2022-08-19T07:30:52.887Z,23.50
2022-08-19T07:33:20.453Z,23.70
2022-08-19T07:35:47.604Z,23.80
2022-08-19T07:38:15.985Z,23.90
2022-08-19T07:40:44.265Z,23.90
2022-08-19T07:43:14.211Z,24.00
2022-08-19T07:45:46.125Z,24.10
2022-08-19T07:48:13.628Z,24.20
2022-08-19T07:50:40.795Z,24.40
2022-08-19T07:53:07.980Z,24.50
2022-08-19T07:55:41.929Z,24.60
2022-08-19T07:58:12.007Z,24.70
2022-08-19T08:00:39.268Z,24.80
2022-08-19T08:03:06.455Z,24.90
2022-08-19T08:05:52.125Z,25.00
2022-08-19T08:08:44.264Z,25.10
2022-08-19T08:11:17.652Z,25.20
2022-08-19T08:13:47.325Z,25.40
2022-08-19T08:16:31.268Z,25.50
2022-08-19T08:18:58.933Z,25.70
2022-08-19T08:21:26.138Z,25.80
2022-08-19T08:23:56.829Z,25.90
2022-08-19T08:26:24.758Z,26.00
2022-08-19T08:28:53.235Z,26.10
2022-08-19T08:31:20.620Z,26.20
2022-08-19T08:33:48.826Z,26.30
2022-08-19T08:36:16.740Z,26.40
2022-08-19T08:38:49.384Z,26.50
2022-08-19T08:41:42.110Z,26.60
2022-08-19T08:44:20.177Z,26.60
2022-08-19T08:47:03.317Z,26.70
2022-08-19T08:49:51.342Z,26.80
2022-08-19T08:52:36.985Z,26.90
2022-08-19T08:55:11.108Z,27.10
2022-08-19T08:57:50.101Z,27.10
2022-08-19T09:00:22.086Z,27.20
2022-08-19T09:02:50.412Z,27.20
2022-08-19T09:05:22.716Z,27.30
2022-08-19T09:08:14.907Z,27.30
2022-08-19T09:10:45.210Z,27.40
2022-08-19T09:13:18.300Z,27.50
2022-08-19T09:16:02.579Z,27.60
2022-08-19T09:18:48.349Z,27.80
2022-08-19T09:21:17.206Z,27.90
2022-08-19T09:23:44.736Z,28.00
2022-08-19T09:26:16.552Z,28.10
2022-08-19T09:28:48.708Z,28.20
2022-08-19T09:31:19.760Z,28.20
2022-08-19T09:33:48.299Z,28.20
2022-08-19T09:36:34.516Z,28.20
2022-08-19T09:39:03.928Z,28.20
2022-08-19T09:41:31.110Z,28.30
2022-08-19T09:43:59.509Z,28.20
2022-08-19T09:46:29.404Z,28.20
2022-08-19T09:49:06.294Z,28.20
2022-08-19T09:51:35.105Z,28.20
2022-08-19T09:54:05.497Z,28.30
2022-08-19T09:56:34.027Z,28.30
2022-08-19T09:59:02.699Z,28.30
2022-08-19T10:01:32.112Z,28.40
2022-08-19T10:04:00.902Z,28.40
2022-08-19T10:06:43.942Z,28.50
2022-08-19T10:09:14.372Z,28.50
2022-08-19T10:11:48.004Z,28.70
2022-08-19T10:14:23.640Z,28.80
2022-08-19T10:16:51.848Z,28.90
2022-08-19T10:19:25.498Z,29.00
2022-08-19T10:21:55.791Z,29.10
2022-08-19T10:24:29.201Z,29.10
2022-08-19T10:26:59.120Z,29.10
2022-08-19T10:29:32.084Z,29.10
2022-08-19T10:32:02.790Z,29.10
2022-08-19T10:34:31.340Z,29.10
2022-08-19T10:37:01.183Z,29.20
2022-08-19T10:39:31.279Z,29.30
2022-08-19T10:41:59.321Z,29.30
2022-08-19T10:44:32.408Z,29.40
2022-08-19T10:47:00.413Z,29.40
2022-08-19T10:49:28.170Z,29.40
2022-08-19T10:52:18.033Z,29.50
2022-08-19T10:55:08.539Z,29.50
2022-08-19T10:57:59.434Z,29.50
2022-08-19T11:00:25.163Z,29.70
2022-08-19T11:02:52.869Z,29.70
2022-08-19T11:05:20.768Z,29.70
2022-08-19T11:07:52.771Z,29.70
2022-08-19T11:10:22.486Z,29.70
2022-08-19T11:12:51.883Z,29.80
2022-08-19T11:15:19.103Z,30.00
2022-08-19T11:17:46.260Z,30.10
2022-08-19T11:20:15.062Z,30.20
2022-08-19T11:22:43.417Z,30.40
2022-08-19T11:25:12.354Z,30.50
2022-08-19T11:27:47.423Z,30.60
2022-08-19T11:30:16.300Z,30.70
2022-08-19T11:32:48.568Z,30.80
2022-08-19T11:35:17.981Z,30.90
2022-08-19T11:37:45.181Z,30.80
2022-08-19T11:40:12.924Z,30.80
2022-08-19T11:42:58.231Z,30.70
2022-08-19T11:45:27.283Z,30.70
2022-08-19T11:47:55.573Z,30.80
2022-08-19T11:50:24.662Z,30.70
2022-08-19T11:52:55.269Z,30.60
2022-08-19T11:55:22.445Z,30.50
2022-08-19T11:57:49.817Z,30.50
2022-08-19T12:00:17.262Z,30.60
2022-08-19T12:02:44.500Z,30.80
2022-08-19T12:05:12.962Z,31.00
2022-08-19T12:07:42.660Z,31.00
2022-08-19T12:10:10.885Z,31.10
2022-08-19T12:12:43.764Z,31.10
2022-08-19T12:15:13.180Z,31.10
2022-08-19T12:17:41.253Z,31.30
2022-08-19T12:20:10.281Z,31.30
2022-08-19T12:22:42.410Z,31.40
2022-08-19T12:25:12.202Z,31.40
2022-08-19T12:27:41.679Z,31.40
2022-08-19T12:30:13.416Z,31.30
2022-08-19T12:32:40.951Z,31.40
2022-08-19T12:35:10.282Z,31.40
2022-08-19T12:37:37.920Z,31.30
2022-08-19T12:40:05.991Z,31.10
2022-08-19T12:42:33.162Z,31.00
2022-08-19T12:45:00.330Z,31.10
2022-08-19T12:47:28.178Z,31.30
2022-08-19T12:49:56.119Z,31.50
2022-08-19T12:52:26.414Z,31.80
2022-08-19T12:54:55.501Z,32.00
2022-08-19T12:57:32.103Z,32.10
2022-08-19T13:00:16.061Z,32.20
2022-08-19T13:02:46.833Z,32.20
2022-08-19T13:05:23.833Z,32.40
2022-08-19T13:07:53.394Z,32.60
2022-08-19T13:10:22.852Z,33.00
2022-08-19T13:12:52.590Z,33.20
2022-08-19T13:15:23.679Z,33.30
2022-08-19T13:17:53.773Z,33.30
2022-08-19T13:20:22.324Z,33.10
2022-08-19T13:22:49.903Z,32.90
2022-08-19T13:25:19.773Z,33.00
2022-08-19T13:27:48.514Z,33.20
2022-08-19T13:30:35.700Z,33.30
2022-08-19T13:33:16.215Z,33.60
2022-08-19T13:35:47.601Z,33.90
2022-08-19T13:38:17.256Z,34.00
2022-08-19T13:40:44.519Z,34.10
2022-08-19T13:43:17.622Z,34.30
2022-08-19T13:45:55.012Z,34.40
2022-08-19T13:48:22.940Z,34.40
2022-08-19T13:50:50.247Z,34.50
2022-08-19T13:53:19.300Z,34.20
2022-08-19T13:55:46.643Z,33.90
2022-08-19T13:58:14.672Z,33.60
2022-08-19T14:00:44.847Z,33.50
2022-08-19T14:03:12.527Z,33.50
2022-08-19T14:05:40.211Z,33.40
2022-08-19T14:08:07.431Z,33.50
2022-08-19T14:10:34.781Z,33.60
2022-08-19T14:13:03.910Z,33.70
2022-08-19T14:15:32.197Z,33.80
2022-08-19T14:17:59.830Z,33.90
2022-08-19T14:20:27.624Z,33.80
2022-08-19T14:22:55.963Z,33.70
2022-08-19T14:25:29.119Z,33.70
2022-08-19T14:27:57.168Z,33.70
2022-08-19T14:30:28.701Z,33.90
2022-08-19T14:32:57.221Z,33.90
2022-08-19T14:35:25.005Z,33.30
2022-08-19T14:37:56.922Z,32.90
2022-08-19T14:40:28.461Z,32.70
2022-08-19T14:43:00.557Z,32.50
2022-08-19T14:45:29.733Z,32.20
2022-08-19T14:47:57.122Z,31.60
2022-08-19T14:50:24.432Z,31.30
2022-08-19T14:52:58.423Z,31.30
2022-08-19T14:55:25.691Z,31.40
2022-08-19T14:57:52.787Z,31.70
2022-08-19T15:00:20.291Z,32.00
2022-08-19T15:02:47.483Z,32.30
2022-08-19T15:05:14.629Z,32.70
2022-08-19T15:07:42.171Z,33.00
2022-08-19T15:10:11.983Z,33.10
2022-08-19T15:12:43.994Z,33.20
2022-08-19T15:15:14.421Z,33.00
2022-08-19T15:17:45.366Z,32.60
2022-08-19T15:20:17.822Z,32.50
2022-08-19T15:22:45.329Z,32.70
2022-08-19T15:25:15.283Z,33.00
2022-08-19T15:27:43.015Z,33.20
2022-08-19T15:30:11.842Z,33.30
2022-08-19T15:32:39.749Z,33.40
2022-08-19T15:35:08.320Z,33.20
2022-08-19T15:37:37.166Z,32.80
2022-08-19T15:40:07.667Z,32.70
2022-08-19T15:42:37.641Z,32.30
2022-08-19T15:45:10.214Z,32.20
2022-08-19T15:47:38.343Z,32.00
2022-08-19T15:50:11.113Z,31.60
2022-08-19T15:52:50.371Z,31.40
2022-08-19T15:55:32.124Z,31.20
2022-08-19T15:58:28.435Z,30.90
2022-08-19T16:01:20.580Z,30.90
2022-08-19T16:04:14.238Z,30.90
2022-08-19T16:06:51.647Z,31.10
2022-08-19T16:09:25.088Z,31.10
2022-08-19T16:12:02.014Z,31.20
2022-08-19T16:14:32.812Z,31.00
2022-08-19T16:17:00.571Z,30.80
2022-08-19T16:19:27.789Z,30.70
2022-08-19T16:21:56.986Z,30.60
2022-08-19T16:24:27.238Z,30.40
2022-08-19T16:26:55.169Z,30.40
2022-08-19T16:29:33.856Z,30.30
2022-08-19T16:32:10.374Z,30.20
2022-08-19T16:34:39.156Z,30.00
2022-08-19T16:37:06.673Z,30.00
2022-08-19T16:39:33.930Z,29.90
2022-08-19T16:42:01.401Z,29.80
2022-08-19T16:44:29.886Z,29.70
2022-08-19T16:46:59.792Z,29.60
2022-08-19T16:49:54.042Z,29.40
2022-08-19T16:52:19.824Z,29.20
2022-08-19T16:54:48.417Z,28.90
2022-08-19T16:57:17.214Z,28.50
2022-08-19T16:59:48.858Z,28.10
2022-08-19T17:02:19.146Z,27.80
2022-08-19T17:04:57.265Z,27.50
2022-08-19T17:07:33.470Z,27.30
2022-08-19T17:10:01.601Z,27.10
2022-08-19T17:12:31.559Z,26.90
2022-08-19T17:15:03.059Z,26.60
2022-08-19T17:17:31.635Z,26.40
2022-08-19T17:20:00.780Z,26.30
2022-08-19T17:22:29.163Z,26.00
2022-08-19T17:24:57.954Z,25.80
2022-08-19T17:27:32.094Z,25.60
2022-08-19T17:30:00.542Z,25.30
2022-08-19T17:32:27.955Z,25.10
2022-08-19T17:34:55.222Z,25.00
2022-08-19T17:37:22.974Z,24.90
2022-08-19T17:39:50.139Z,24.70
2022-08-19T17:42:17.372Z,24.60
2022-08-19T17:44:44.766Z,24.50
2022-08-19T17:47:18.282Z,24.40
2022-08-19T17:49:45.471Z,24.20
2022-08-19T17:52:12.631Z,24.10
2022-08-19T17:54:39.746Z,24.00
2022-08-19T17:57:06.912Z,23.90
2022-08-19T17:59:34.222Z,23.80
2022-08-19T18:02:01.521Z,23.60
2022-08-19T18:04:29.985Z,23.50
2022-08-19T18:06:58.724Z,23.40
2022-08-19T18:09:42.222Z,23.20
2022-08-19T18:12:12.203Z,23.10
2022-08-19T18:14:40.473Z,22.90
2022-08-19T18:17:11.030Z,22.80
2022-08-19T18:19:41.352Z,22.60
2022-08-19T18:22:22.648Z,22.50
2022-08-19T18:24:50.022Z,22.40
2022-08-19T18:27:17.482Z,22.30
2022-08-19T18:29:45.372Z,22.20
2022-08-19T18:32:13.416Z,22.10
2022-08-19T18:34:42.116Z,22.00
2022-08-19T18:37:09.671Z,21.90
2022-08-19T18:39:55.750Z,21.80
2022-08-19T18:42:42.190Z,21.70
2022-08-19T18:45:29.882Z,21.60
2022-08-19T18:48:27.464Z,21.50
2022-08-19T18:51:00.542Z,21.40
2022-08-19T18:53:30.973Z,21.30
2022-08-19T18:55:59.805Z,21.20
2022-08-19T18:58:34.977Z,21.10
2022-08-19T19:01:16.045Z,21.00
2022-08-19T19:03:46.840Z,20.90
2022-08-19T19:06:16.381Z,20.90
2022-08-19T19:08:43.600Z,20.80
2022-08-19T19:11:10.900Z,20.70
2022-08-19T19:13:40.786Z,20.70
2022-08-19T19:16:11.736Z,20.60
2022-08-19T19:18:39.333Z,20.50
2022-08-19T19:21:08.283Z,20.50
2022-08-19T19:23:41.050Z,20.40
2022-08-19T19:26:11.075Z,20.30
2022-08-19T19:28:43.989Z,20.30
2022-08-19T19:31:20.387Z,20.20
2022-08-19T19:33:47.601Z,20.20
2022-08-19T19:36:14.950Z,20.10
2022-08-19T19:38:48.615Z,20.10
2022-08-19T19:41:23.544Z,20.00
2022-08-19T19:44:23.096Z,19.90
2022-08-19T19:46:43.084Z,19.90
2022-08-19T19:49:11.285Z,19.80
2022-08-19T19:51:39.700Z,19.80
2022-08-19T19:54:13.784Z,19.70
2022-08-19T19:56:46.352Z,19.70
2022-08-19T19:59:13.742Z,19.50
2022-08-19T20:01:47.179Z,19.50
2022-08-19T20:04:15.764Z,19.40
2022-08-19T20:06:43.330Z,19.40
2022-08-19T20:09:11.100Z,19.30
2022-08-19T20:11:47.324Z,19.30
2022-08-19T20:14:21.261Z,19.20
2022-08-19T20:16:50.373Z,19.20
2022-08-19T20:19:20.711Z,19.10
2022-08-19T20:21:51.349Z,19.10
2022-08-19T20:24:26.232Z,19.00
2022-08-19T20:26:54.297Z,18.90
2022-08-19T20:29:38.192Z,18.90
2022-08-19T20:32:07.021Z,18.90
2022-08-19T20:34:34.364Z,18.80
2022-08-19T20:37:01.570Z,18.80
2022-08-19T20:39:28.843Z,18.80
2022-08-19T20:41:56.669Z,18.80
2022-08-19T20:44:25.676Z,18.70
2022-08-19T20:46:57.531Z,18.70
2022-08-19T20:49:27.103Z,18.60
2022-08-19T20:51:58.628Z,18.60
2022-08-19T20:54:26.681Z,18.50
2022-08-19T20:56:54.331Z,18.50
2022-08-19T20:59:22.321Z,18.50
2022-08-19T21:01:51.981Z,18.40
2022-08-19T21:04:21.082Z,18.40
2022-08-19T21:06:49.563Z,18.40
2022-08-19T21:09:17.689Z,18.30
2022-08-19T21:11:45.050Z,18.30
2022-08-19T21:14:13.029Z,18.30
2022-08-19T21:16:40.308Z,18.20
2022-08-19T21:19:07.883Z,18.20
2022-08-19T21:21:35.252Z,18.10
2022-08-19T21:24:02.590Z,18.10
2022-08-19T21:26:29.843Z,18.10
2022-08-19T21:28:57.221Z,18.00
2022-08-19T21:31:24.366Z,18.00
2022-08-19T21:33:51.659Z,18.00
2022-08-19T21:36:18.838Z,17.90
2022-08-19T21:38:46.049Z,17.90
2022-08-19T21:41:13.458Z,17.90
2022-08-19T21:43:41.108Z,17.90
2022-08-19T21:46:09.346Z,17.80
2022-08-19T21:48:37.132Z,17.80
2022-08-19T21:51:04.541Z,17.80
2022-08-19T21:53:34.502Z,17.70
2022-08-19T21:56:07.015Z,17.70
2022-08-19T21:58:36.620Z,17.60
2022-08-19T22:01:08.069Z,17.60
2022-08-19T22:03:37.586Z,17.60
2022-08-19T22:06:05.786Z,17.60
2022-08-19T22:08:33.065Z,17.60
2022-08-19T22:11:00.435Z,17.50
2022-08-19T22:13:28.515Z,17.50
2022-08-19T22:15:55.861Z,17.50
2022-08-19T22:18:23.211Z,17.50
2022-08-19T22:20:50.771Z,17.50
2022-08-19T22:23:17.947Z,17.40
2022-08-19T22:25:47.301Z,17.40
2022-08-19T22:28:19.030Z,17.30
2022-08-19T22:30:56.229Z,17.30
2022-08-19T22:33:24.442Z,17.30
2022-08-19T22:35:53.459Z,17.20
2022-08-19T22:38:20.758Z,17.20
2022-08-19T22:40:49.820Z,17.20
2022-08-19T22:43:30.386Z,17.20
2022-08-19T22:45:58.501Z,17.10
2022-08-19T22:48:28.235Z,17.10
2022-08-19T22:51:14.661Z,17.10
2022-08-19T22:53:45.224Z,17.10
2022-08-19T22:56:15.427Z,17.00
2022-08-19T22:58:43.467Z,17.00
2022-08-19T23:01:16.326Z,17.00
2022-08-19T23:03:56.714Z,16.90
2022-08-19T23:06:25.235Z,16.90
2022-08-19T23:09:00.796Z,16.90
2022-08-19T23:11:28.169Z,16.90
2022-08-19T23:13:55.766Z,16.80
2022-08-19T23:16:24.951Z,16.80
2022-08-19T23:18:56.043Z,16.70
2022-08-19T23:21:25.564Z,16.70
2022-08-19T23:23:53.858Z,16.70
2022-08-19T23:26:21.769Z,16.60
2022-08-19T23:29:07.368Z,16.50
2022-08-19T23:31:36.613Z,16.60
2022-08-19T23:34:04.540Z,16.50
2022-08-19T23:36:31.822Z,16.50
2022-08-19T23:38:59.869Z,16.50
2022-08-19T23:41:30.221Z,16.40
2022-08-19T23:43:57.675Z,16.40
2022-08-19T23:46:28.630Z,16.40
2022-08-19T23:48:57.104Z,16.30
2022-08-19T23:51:26.716Z,16.30
2022-08-19T23:53:54.128Z,16.30
2022-08-19T23:56:21.660Z,16.30
2022-08-19T23:58:49.384Z,16.30
